Latest Weather Observations for Perisher Valley

IDN60801

Issued at 10:42 am EST Monday 16 September 2019 (issued every 10 minutes, with the page automatically refreshed every 10 minutes)

About weather observations | Map of weather stations | Latest weather observations for NSW | Other Formats
Station Details ID: 071075 Name: PERISHER VALLEY AWS Lat: -36.41 Lon: 148.41 Height: 1738.0 m
Data from the previous 72 hours. | See also: Recent months at Perisher Valley
Date/Time
EST
Temp
°C
App
Temp
°C
Dew
Point
°C
Rel
Hum
%
Delta-T
°C
Wind Press
QNH
hPa
Press
MSL
hPa
Rain since
9am
mm
Dir  Spd
km/h
Gust
km/h
Spd
kts
Gust
kts
16/10:30am 4.7 -0.6 3.0 89 0.8 W 20 35 11 19 - - 3.4
16/10:00am 4.9 -0.3 3.6 91 0.6 W 20 35 11 19 - - 2.6
16/09:39am 4.5 -2.3 3.2 91 0.6 WNW 28 48 15 26 - - 2.6
16/09:30am 4.3 -0.4 3.4 94 0.4 W 17 37 9 20 - - 1.8
16/09:00am 4.9 -1.8 1.7 80 1.4 WNW 26 46 14 25 - - 6.0
16/08:30am 5.5 -2.9 -0.8 64 2.7 WNW 33 56 18 30 - - 6.0
16/08:01am 6.1 -3.5 -1.8 57 3.3 WNW 39 57 21 31 - - 6.0
16/08:00am 6.1 -3.9 -1.8 57 3.3 WNW 41 57 22 31 - - 6.0
16/07:30am 6.2 -3.8 -1.9 56 3.3 W 41 61 22 33 - - 6.0
16/07:00am 6.7 -2.2 -2.2 53 3.7 W 35 56 19 30 - - 6.0
16/06:30am 6.1 -2.3 -1.1 60 3.0 W 33 54 18 29 - - 6.0
16/06:02am 5.6 -3.6 1.2 73 1.9 W 39 59 21 32 - - 6.0
16/06:00am 5.6 -4.0 1.2 73 1.9 W 41 59 22 32 - - 6.0
16/05:30am 5.5 -3.2 2.0 78 1.6 W 37 59 20 32 - - 6.0
16/05:02am 5.5 -3.1 2.7 82 1.3 WNW 37 57 20 31 - - 6.0
16/05:00am 5.5 -3.5 2.7 82 1.3 WNW 39 57 21 31 - - 6.0
16/04:32am 5.8 -2.6 3.8 87 0.9 WNW 37 57 20 31 - - 5.6
16/04:30am 5.8 -2.6 3.8 87 0.9 WNW 37 52 20 28 - - 5.6
16/04:00am 6.1 -1.9 3.9 86 1.0 W 35 54 19 29 - - 4.6
16/03:30am 6.4 -2.8 3.7 83 1.3 W 41 63 22 34 - - 4.6
16/03:02am 6.8 -2.1 2.9 76 1.8 WNW 39 57 21 31 - - 3.8
16/03:00am 6.8 -1.7 2.9 76 1.8 WNW 37 54 20 29 - - 3.8
16/02:30am 6.9 -0.3 2.8 75 1.9 WNW 30 61 16 33 - - 3.8
16/02:00am 5.9 -1.6 3.6 85 1.1 WNW 32 63 17 34 - - 3.8
16/01:30am 5.9 -3.3 3.7 86 1.0 WNW 41 70 22 38 - - 3.2
16/01:00am 6.0 -2.9 3.3 83 1.3 WNW 39 63 21 34 - - 2.8
16/12:30am 4.9 -4.4 2.9 87 0.9 WNW 41 67 22 36 - - 2.8
16/12:00am 4.3 -3.2 1.2 80 1.4 WNW 30 59 16 32 - - 2.8
 
Date/Time
EST
Temp
°C
App
Temp
°C
Dew
Point
°C
Rel
Hum
%
Delta-T
°C
Wind Press
QNH
hPa
Press
MSL
hPa
Rain since
9am
mm
Dir  Spd
km/h
Gust
km/h
Spd
kts
Gust
kts
15/11:30pm 5.0 -4.1 -0.4 68 2.3 WNW 37 61 20 33 - - 1.0
15/11:00pm 6.6 -4.5 -2.5 52 3.7 WNW 46 70 25 38 - - 0.0
15/10:30pm 6.9 -3.9 -3.9 46 4.3 WNW 44 80 24 43 - - 0.0
15/10:00pm 6.8 -2.8 -4.3 45 4.4 WNW 37 70 20 38 - - 0.0
15/09:45pm 6.9 -2.7 -4.2 45 4.4 WNW 37 74 20 40 - - 0.0
15/09:30pm 7.1 -1.5 -4.0 45 4.4 WNW 32 59 17 32 - - 0.0
15/09:00pm 7.2 -4.4 -3.9 45 4.4 WNW 48 78 26 42 - - 0.0
15/08:30pm 6.8 -3.8 -3.4 48 4.1 WNW 43 67 23 36 - - 0.0
15/08:00pm 6.1 -4.0 -2.5 54 3.5 W 41 65 22 35 - - 0.0
15/07:30pm 6.2 -4.8 -1.9 56 3.3 WNW 46 69 25 37 - - 0.0
15/07:00pm 6.2 -4.2 -1.9 56 3.3 WNW 43 67 23 36 - - 0.0
15/06:30pm 6.1 -4.0 -2.5 54 3.5 WNW 41 65 22 35 - - 0.0
15/06:00pm 6.3 -4.5 -3.1 51 3.8 WNW 44 67 24 36 - - 0.0
15/05:30pm 6.6 -4.2 -4.8 44 4.4 WNW 43 69 23 37 - - 0.0
15/05:00pm 7.2 -2.4 -5.1 41 4.8 WNW 37 63 20 34 - - 0.0
15/04:30pm 7.1 -3.8 -6.6 37 5.1 WNW 43 69 23 37 - - 0.0
15/04:00pm 6.8 -3.3 -5.5 41 4.7 WNW 39 61 21 33 - - 0.0
15/03:30pm 6.7 -1.9 -3.8 47 4.2 WNW 32 57 17 31 - - 0.0
15/03:25pm 6.5 -1.3 -3.7 48 4.1 WNW 28 50 15 27 - - 0.0
15/03:00pm 6.8 1.1 -1.1 57 3.4 WNW 19 39 10 21 - - 0.0
15/02:30pm 6.1 -1.4 -1.3 59 3.1 WNW 28 46 15 25 - - 0.0
15/02:00pm 5.7 -2.2 -1.9 58 3.1 WNW 30 50 16 27 - - 0.0
15/01:31pm 6.2 -1.3 -1.4 58 3.2 WNW 28 57 15 31 - - 0.0
15/01:30pm 6.4 -0.7 -1.2 58 3.2 WNW 26 57 14 31 - - 0.0
15/01:00pm 6.6 1.4 -3.1 50 3.9 WNW 15 37 8 20 - - 0.0
15/12:30pm 5.8 0.2 -3.3 52 3.6 NW 17 39 9 21 - - 0.0
15/12:00pm 5.8 -1.0 -5.2 45 4.2 WNW 22 41 12 22 - - 0.0
15/11:30am 7.3 1.2 -3.5 46 4.3 WNW 19 35 10 19 - - 0.0
15/11:00am 8.3 4.9 1.9 64 3.0 W 9 20 5 11 - - 0.0
15/10:30am 8.4 3.8 1.8 63 3.0 W 15 28 8 15 - - 0.0
15/10:00am 8.0 3.3 1.2 62 3.1 WSW 15 35 8 19 - - 0.0
15/09:30am 7.0 1.7 -0.7 58 3.3 WSW 17 35 9 19 - - 0.0
15/09:00am 5.8 0.6 -6.7 40 4.6 NW 13 28 7 15 - - 0.0
15/08:30am 5.8 -0.8 -8.8 34 5.1 WNW 19 35 10 19 - - 0.0
15/08:00am 5.7 -0.2 -10.5 30 5.4 WNW 15 28 8 15 - - 0.0
15/07:30am 5.6 -0.5 -12.4 26 6.0 WNW 15 28 8 15 - - 0.0
15/07:00am 6.2 1.2 -4.3 47 4.1 WNW 13 22 7 12 - - 0.0
15/06:30am 5.5 -1.0 -8.4 36 4.9 W 19 30 10 16 - - 0.0
15/06:00am 5.2 -1.7 -13.2 25 6.0 W 19 33 10 18 - - 0.0
15/05:30am 5.0 -1.3 -10.3 32 5.4 W 17 28 9 15 - - 0.0
15/05:00am 4.9 -1.4 -10.0 33 5.2 W 17 30 9 16 - - 0.0
15/04:30am 4.9 -2.5 -13.0 26 5.8 WSW 22 37 12 20 - - 0.0
15/04:00am 5.2 -1.9 -13.7 24 6.1 WSW 20 33 11 18 - - 0.0
15/03:30am 5.3 -2.1 -13.1 25 6.0 WSW 22 33 12 18 - - 0.0
15/03:00am 5.8 -3.4 -18.0 16 7.0 WSW 30 48 16 26 - - 0.0
15/02:30am 6.1 -3.5 -18.5 15 7.1 WSW 32 52 17 28 - - 0.0
15/02:19am 6.1 -3.5 -18.5 15 7.1 WSW 32 50 17 27 - - 0.0
15/02:00am 5.8 -3.0 -16.6 18 6.8 WSW 28 43 15 23 - - 0.0
15/01:40am 5.9 -2.8 -15.9 19 6.7 WSW 28 46 15 25 - - 0.0
15/01:30am 5.4 -1.4 -12.1 27 5.9 WSW 19 35 10 19 - - 0.0
15/01:00am 5.3 -1.5 -9.6 33 5.0 WSW 20 32 11 17 - - 0.0
15/12:30am 5.7 -1.8 -8.9 34 5.1 WSW 24 43 13 23 - - 0.0
15/12:00am 5.6 -1.8 -6.9 40 4.5 W 24 39 13 21 - - 0.0
 
Date/Time
EST
Temp
°C
App
Temp
°C
Dew
Point
°C
Rel
Hum
%
Delta-T
°C
Wind Press
QNH
hPa
Press
MSL
hPa
Rain since
9am
mm
Dir  Spd
km/h
Gust
km/h
Spd
kts
Gust
kts
14/11:30pm 4.6 -0.5 -2.3 61 2.8 W 15 32 8 17 - - 0.0
14/11:00pm 4.4 -0.2 -4.1 54 3.3 W 11 22 6 12 - - 0.0
14/10:30pm 3.9 0.8 -2.5 63 2.5 W 4 19 2 10 - - 0.0
14/10:00pm 4.2 0.5 -2.6 61 2.7 W 7 15 4 8 - - 0.0
14/09:30pm 4.3 -0.4 -1.9 64 2.5 W 13 20 7 11 - - 0.0
14/09:00pm 4.4 0.1 -1.6 65 2.5 W 11 24 6 13 - - 0.0
14/08:30pm 4.0 0.1 -1.4 68 2.2 W 9 22 5 12 - - 0.0
14/08:00pm 3.9 0.4 -1.7 67 2.3 W 7 17 4 9 - - 0.0
14/07:30pm 3.7 -0.3 -2.3 65 2.4 W 9 17 5 9 - - 0.0
14/07:00pm 4.4 0.6 -0.4 71 2.0 W 9 17 5 9 - - 0.0
14/06:30pm 3.2 0.3 -1.2 73 1.8 WSW 4 11 2 6 - - 0.0
14/06:00pm 4.2 0.0 -0.8 70 2.1 WSW 11 17 6 9 - - 0.0
14/05:30pm 4.5 0.6 -1.5 65 2.5 WSW 9 17 5 9 - - 0.0
14/05:00pm 5.8 2.2 -2.0 57 3.2 WNW 7 13 4 7 - - 0.0
14/04:30pm 7.1 1.9 -6.6 37 5.1 W 13 20 7 11 - - 0.0
14/04:00pm 7.5 3.0 -6.6 36 5.3 WSW 9 17 5 9 - - 0.0
14/03:30pm 7.4 3.4 -5.3 40 4.9 WSW 7 17 4 9 - - 0.0
14/03:00pm 7.3 2.9 -5.4 40 4.9 WSW 9 24 5 13 - - 0.0
14/02:30pm 7.3 2.2 -5.1 41 4.8 WSW 13 22 7 12 - - 0.0
14/02:00pm 7.3 2.4 -7.5 34 5.4 WSW 11 20 6 11 - - 0.0
14/01:30pm 7.5 2.8 -8.9 30 5.8 WSW 9 22 5 12 - - 0.0
14/01:00pm 7.3 2.2 -10.0 28 6.0 WSW 11 33 6 18 - - 0.0
14/12:30pm 7.1 2.0 -8.9 31 5.6 WSW 11 28 6 15 - - 0.0
14/12:00pm 8.2 2.5 -13.4 20 6.9 WSW 13 28 7 15 - - 0.0
14/11:30am 8.4 2.1 -17.5 14 7.6 SW 15 30 8 16 - - 0.0
14/11:00am 8.4 2.9 -15.9 16 7.4 SW 11 22 6 12 - - 0.0
14/10:30am 8.1 2.9 -16.9 15 7.4 SW 9 20 5 11 - - 0.0
14/10:00am 7.5 2.2 -19.1 13 7.4 SW 9 22 5 12 - - 0.0
14/09:30am 6.7 0.8 -17.3 16 7.3 SW 13 26 7 14 - - 0.0
14/09:00am 6.1 0.2 -16.4 18 6.9 SW 13 26 7 14 - - 0.0
14/08:30am 5.5 -0.8 -17.6 17 6.8 SW 15 28 8 15 - - 0.0
14/08:00am 5.0 -2.1 -17.3 18 6.5 SW 19 33 10 18 - - 0.0
14/07:30am 4.4 -2.8 -19.2 16 6.5 SW 19 28 10 15 - - 0.0
14/07:00am 3.9 -3.5 -20.3 15 6.4 SW 20 35 11 19 - - 0.0
14/06:30am 3.1 -4.2 -18.2 19 5.8 SW 20 41 11 22 - - 0.0
14/06:00am 2.2 -4.1 -17.3 22 5.3 SW 15 35 8 19 - - 0.0
14/05:30am 2.1 -4.6 -17.9 21 5.4 SW 17 26 9 14 - - 0.0
14/05:00am 2.1 -4.9 -14.5 28 4.9 SSW 19 32 10 17 - - 0.0
14/04:30am 1.5 -3.6 -10.0 42 3.8 SW 11 26 6 14 - - 0.0
14/04:00am 1.7 -3.0 -9.5 43 3.7 SW 9 19 5 10 - - 0.0
14/03:30am 0.4 -4.1 -6.9 58 2.5 SW 9 17 5 9 - - 0.0
14/03:00am 0.4 -4.3 -5.0 67 2.0 SW 11 22 6 12 - - 0.0
14/02:30am 2.2 -2.6 -5.9 55 3.0 SW 11 24 6 13 - - 0.0
14/02:00am 3.1 -2.2 -7.1 47 3.8 WSW 13 32 7 17 - - 0.0
14/01:30am 2.8 -3.9 -4.4 59 2.7 W 22 37 12 20 - - 0.0
14/01:00am 2.4 -3.6 -1.9 73 1.7 WSW 20 39 11 21 - - 0.0
14/12:30am 2.6 -3.8 -1.4 75 1.6 W 22 41 12 22 - - 0.0
14/12:00am 3.2 -3.5 -1.3 72 1.8 W 24 44 13 24 - - 0.0
 
Date/Time
EST
Temp
°C
App
Temp
°C
Dew
Point
°C
Rel
Hum
%
Delta-T
°C
Wind Press
QNH
hPa
Press
MSL
hPa
Rain since
9am
mm
Dir  Spd
km/h
Gust
km/h
Spd
kts
Gust
kts
13/11:30pm 3.7 -3.8 -1.6 68 2.2 W 28 48 15 26 - - 0.0
13/11:22pm 3.5 -4.1 -2.0 67 2.2 W 28 48 15 26 - - 0.0
13/11:00pm 2.9 -4.1 -3.2 64 2.4 W 24 44 13 24 - - 0.0
13/10:32pm 4.2 -3.9 -2.9 60 2.8 W 30 48 16 26 - - 0.0
13/10:30pm 4.1 -4.0 -3.2 59 2.9 W 30 48 16 26 - - 0.0
13/10:21pm 4.3 -3.5 -4.2 54 3.3 W 28 48 15 26 - - 0.0
13/10:00pm 4.8 -1.3 -2.1 61 2.8 W 20 43 11 23 - - 0.0
13/09:30pm 4.4 -2.3 -3.8 55 3.2 W 22 46 12 25 - - 0.0
13/09:00pm 3.9 -2.4 -5.6 50 3.5 W 19 43 10 23 - - 0.0
13/08:30pm 4.2 -1.7 -6.1 47 3.8 W 17 35 9 19 - - 0.0
13/08:00pm 4.3 -2.3 -6.9 44 4.0 W 20 41 11 22 - - 0.0
13/07:30pm 4.3 -3.1 -7.8 41 4.2 W 24 43 13 23 - - 0.0
13/07:00pm 4.7 -2.0 -8.0 39 4.4 WNW 20 35 11 19 - - 0.0
13/06:30pm 4.5 -2.3 -5.3 49 3.7 WNW 22 39 12 21 - - 0.0
13/06:00pm 4.7 -1.1 -4.6 51 3.5 W 17 35 9 19 - - 0.0
13/05:30pm 4.6 -2.4 -3.4 56 3.1 WNW 24 37 13 20 - - 0.0
13/05:00pm 4.8 -1.8 -3.0 57 3.1 W 22 32 12 17 - - 0.0
13/04:30pm 5.1 -1.9 -3.2 55 3.3 W 24 37 13 20 - - 0.0
13/04:00pm 5.7 -2.3 -2.6 55 3.4 W 30 48 16 26 - - 0.0
13/03:32pm 5.4 -2.4 -3.9 51 3.6 W 28 46 15 25 - - 0.0
13/03:30pm 5.4 -2.8 -3.9 51 3.6 W 30 48 16 26 - - 0.0
13/03:00pm 6.0 -3.7 -9.8 31 5.4 W 35 57 19 31 - - 0.0
13/02:33pm 6.2 -2.3 -12.3 25 5.9 W 28 46 15 25 - - 0.0
13/02:30pm 6.1 -2.0 -11.9 26 5.8 W 26 50 14 27 - - 0.0
13/02:07pm 6.3 -2.0 -9.6 31 5.5 W 28 46 15 25 - - 0.0
13/02:00pm 6.4 -3.2 -9.1 32 5.4 W 35 46 19 25 - - 0.0
13/01:30pm 6.5 -0.4 -13.1 23 6.2 WNW 19 32 10 17 - - 0.0
13/01:00pm 6.7 0.0 -10.5 28 5.8 WNW 19 32 10 17 - - 0.0
13/12:30pm 6.6 -0.3 -13.6 22 6.3 WNW 19 35 10 19 - - 0.0
13/12:00pm 7.6 1.1 -13.9 20 6.8 WNW 17 28 9 15 - - 0.0
13/11:30am 7.8 1.8 -12.0 23 6.5 WNW 15 26 8 14 - - 0.0
13/11:00am 8.5 3.4 -15.1 17 7.3 W 9 26 5 14 - - 0.0

Other formats

Comma delimited format used in spreadsheet applications
http://www.bom.gov.au/fwo/IDN60801/IDN60801.94915.axf

JavaScript Object Notation format (JSON) in row-major order
http://www.bom.gov.au/fwo/IDN60801/IDN60801.94915.json

Data quality

Most of these data are generated automatically and are frequently updated. Quality checks on data are not normally performed. It is possible for incorrect values to appear. Refer to information at About Latest Weather Observations and please check the disclaimer before using these data.